sensor_id;sensor_type;location;lat;lon;timestamp;pressure;altitude;pressure_sealevel;temperature;humidity
71903;BME280;59778;50.310;18.780;2023-02-22T00:00:31;98830.59;;;3.65;92.92
71903;BME280;59778;50.310;18.780;2023-02-22T00:16:05;98823.84;;;3.52;94.30
71903;BME280;59778;50.310;18.780;2023-02-22T00:31:26;98834.06;;;3.48;91.76
71903;BME280;59778;50.310;18.780;2023-02-22T00:46:47;98846.16;;;3.25;91.96
71903;BME280;59778;50.310;18.780;2023-02-22T01:02:09;98844.59;;;2.95;93.79
71903;BME280;59778;50.310;18.780;2023-02-22T01:17:32;98848.00;;;2.78;94.26
71903;BME280;59778;50.310;18.780;2023-02-22T01:32:54;98839.66;;;2.81;94.59
71903;BME280;59778;50.310;18.780;2023-02-22T01:48:27;98834.66;;;2.68;95.16
71903;BME280;59778;50.310;18.780;2023-02-22T02:03:51;98836.91;;;2.63;95.83
71903;BME280;59778;50.310;18.780;2023-02-22T02:35:27;98849.19;;;2.47;96.56
71903;BME280;59778;50.310;18.780;2023-02-22T02:50:50;98858.38;;;2.44;97.52
71903;BME280;59778;50.310;18.780;2023-02-22T03:06:58;98849.78;;;2.41;96.55
71903;BME280;59778;50.310;18.780;2023-02-22T03:22:29;98842.13;;;2.46;95.93
71903;BME280;59778;50.310;18.780;2023-02-22T03:37:57;98863.00;;;2.23;96.08
71903;BME280;59778;50.310;18.780;2023-02-22T03:53:21;98864.00;;;2.22;96.79
71903;BME280;59778;50.310;18.780;2023-02-22T04:08:43;98863.88;;;2.23;94.96
71903;BME280;59778;50.310;18.780;2023-02-22T04:24:04;98882.59;;;2.04;95.03
71903;BME280;59778;50.310;18.780;2023-02-22T04:39:26;98864.13;;;1.92;93.90
71903;BME280;59778;50.310;18.780;2023-02-22T04:54:47;98864.50;;;1.68;94.01
71903;BME280;59778;50.310;18.780;2023-02-22T05:10:10;98860.44;;;1.73;96.04
71903;BME280;59778;50.310;18.780;2023-02-22T05:25:32;98862.50;;;1.60;99.05
71903;BME280;59778;50.310;18.780;2023-02-22T05:40:53;98883.91;;;1.60;99.45
71903;BME280;59778;50.310;18.780;2023-02-22T05:56:20;98891.53;;;1.74;99.18
71903;BME280;59778;50.310;18.780;2023-02-22T06:11:41;98906.91;;;1.82;100.00
71903;BME280;59778;50.310;18.780;2023-02-22T06:27:03;98918.44;;;2.13;100.00
71903;BME280;59778;50.310;18.780;2023-02-22T06:42:24;98942.53;;;2.22;100.00
71903;BME280;59778;50.310;18.780;2023-02-22T06:57:46;98953.44;;;2.40;100.00
71903;BME280;59778;50.310;18.780;2023-02-22T07:13:07;98961.34;;;2.90;100.00
71903;BME280;59778;50.310;18.780;2023-02-22T07:28:29;98966.41;;;3.12;100.00
71903;BME280;59778;50.310;18.780;2023-02-22T07:43:50;98966.50;;;3.76;100.00
71903;BME280;59778;50.310;18.780;2023-02-22T07:59:12;98965.00;;;3.91;100.00
71903;BME280;59778;50.310;18.780;2023-02-22T08:14:33;98959.78;;;4.44;100.00
71903;BME280;59778;50.310;18.780;2023-02-22T08:29:55;98960.84;;;4.87;100.00
71903;BME280;59778;50.310;18.780;2023-02-22T08:45:17;98981.47;;;5.13;99.20
71903;BME280;59778;50.310;18.780;2023-02-22T09:00:39;98984.56;;;5.27;98.62
71903;BME280;59778;50.310;18.780;2023-02-22T09:16:00;98982.91;;;5.51;97.28
71903;BME280;59778;50.310;18.780;2023-02-22T09:31:22;98992.19;;;6.00;93.06
71903;BME280;59778;50.310;18.780;2023-02-22T09:46:44;98979.50;;;6.35;91.85
71903;BME280;59778;50.310;18.780;2023-02-22T10:02:33;98974.69;;;6.54;85.39
71903;BME280;59778;50.310;18.780;2023-02-22T10:18:16;98963.44;;;6.99;83.78
71903;BME280;59778;50.310;18.780;2023-02-22T10:33:45;98957.53;;;7.36;78.82
71903;BME280;59778;50.310;18.780;2023-02-22T10:49:07;98952.16;;;7.99;75.55
71903;BME280;59778;50.310;18.780;2023-02-22T11:20:26;98926.72;;;8.17;67.96
71903;BME280;59778;50.310;18.780;2023-02-22T11:35:58;98922.44;;;8.30;69.41
71903;BME280;59778;50.310;18.780;2023-02-22T12:22:44;98910.22;;;8.03;68.24
71903;BME280;59778;50.310;18.780;2023-02-22T13:40:49;98882.63;;;8.47;61.49
71903;BME280;59778;50.310;18.780;2023-02-22T13:56:14;98881.41;;;8.49;61.33
71903;BME280;59778;50.310;18.780;2023-02-22T14:11:39;98885.75;;;8.59;60.80
71903;BME280;59778;50.310;18.780;2023-02-22T14:27:03;98880.69;;;8.25;61.19
71903;BME280;59778;50.310;18.780;2023-02-22T14:42:32;98885.63;;;8.29;61.97
71903;BME280;59778;50.310;18.780;2023-02-22T15:13:29;98890.84;;;8.23;62.71
71903;BME280;59778;50.310;18.780;2023-02-22T15:28:58;98883.66;;;8.07;62.21
71903;BME280;59778;50.310;18.780;2023-02-22T15:44:20;98881.16;;;8.05;64.30
71903;BME280;59778;50.310;18.780;2023-02-22T15:59:44;98884.81;;;7.74;65.45
71903;BME280;59778;50.310;18.780;2023-02-22T16:15:15;98894.75;;;7.02;67.29
71903;BME280;59778;50.310;18.780;2023-02-22T16:30:38;98908.38;;;6.36;71.51
71903;BME280;59778;50.310;18.780;2023-02-22T16:46:00;98914.16;;;5.73;74.22
71903;BME280;59778;50.310;18.780;2023-02-22T17:01:22;98913.78;;;5.34;75.89
71903;BME280;59778;50.310;18.780;2023-02-22T17:16:43;98920.88;;;4.92;76.36
71903;BME280;59778;50.310;18.780;2023-02-22T17:32:07;98919.50;;;4.35;78.47
71903;BME280;59778;50.310;18.780;2023-02-22T17:47:29;98927.56;;;4.17;78.89
71903;BME280;59778;50.310;18.780;2023-02-22T18:02:51;98936.22;;;3.84;80.31
71903;BME280;59778;50.310;18.780;2023-02-22T18:18:13;98927.97;;;3.21;82.30
71903;BME280;59778;50.310;18.780;2023-02-22T18:33:36;98942.94;;;3.14;83.69
71903;BME280;59778;50.310;18.780;2023-02-22T18:48:57;98948.31;;;3.23;87.31
71903;BME280;59778;50.310;18.780;2023-02-22T19:04:19;98936.66;;;3.42;87.56
71903;BME280;59778;50.310;18.780;2023-02-22T19:19:42;98926.41;;;3.65;86.26
71903;BME280;59778;50.310;18.780;2023-02-22T19:35:04;98916.72;;;3.54;83.63
71903;BME280;59778;50.310;18.780;2023-02-22T19:50:26;98933.13;;;3.51;83.46
71903;BME280;59778;50.310;18.780;2023-02-22T20:05:48;98931.66;;;3.01;85.49
71903;BME280;59778;50.310;18.780;2023-02-22T20:21:17;98939.91;;;2.70;86.86
71903;BME280;59778;50.310;18.780;2023-02-22T20:36:40;98941.88;;;2.68;85.94
71903;BME280;59778;50.310;18.780;2023-02-22T20:52:01;98947.38;;;2.86;84.97
71903;BME280;59778;50.310;18.780;2023-02-22T21:07:23;98942.28;;;2.83;83.53
71903;BME280;59778;50.310;18.780;2023-02-22T21:22:45;98934.53;;;2.61;84.16
71903;BME280;59778;50.310;18.780;2023-02-22T21:38:09;98933.00;;;2.49;84.42
71903;BME280;59778;50.310;18.780;2023-02-22T21:53:34;98916.16;;;2.18;85.11
71903;BME280;59778;50.310;18.780;2023-02-22T22:08:56;98914.78;;;2.23;85.00
71903;BME280;59778;50.310;18.780;2023-02-22T22:24:20;98909.97;;;2.08;85.24
71903;BME280;59778;50.310;18.780;2023-02-22T22:39:42;98905.69;;;1.46;88.02
71903;BME280;59778;50.310;18.780;2023-02-22T22:55:04;98896.47;;;1.69;87.20
71903;BME280;59778;50.310;18.780;2023-02-22T23:10:32;98904.06;;;1.74;88.12
71903;BME280;59778;50.310;18.780;2023-02-22T23:26:10;98910.50;;;1.92;87.61
71903;BME280;59778;50.310;18.780;2023-02-22T23:41:32;98918.34;;;1.84;88.56
71903;BME280;59778;50.310;18.780;2023-02-22T23:56:56;98914.09;;;1.72;89.78
